Time,TemperatureF,DewpointF,PressureIn,WindDirection,WindDirectionDegrees,WindSpeedMPH,WindSpeedGustMPH,Humidity,HourlyPrecipIn,Conditions,Clouds,dailyrainin,SoftwareType,DateUTC
2013-10-12 00:28:00,42.7,41.1,29.99,WNW,298,1.0,1.0,94,0.00,,,0.00,Wunderground v.1.15,2013-10-12 07:28:00,
2013-10-12 00:58:00,42.1,40.8,29.99,WNW,298,1.0,2.0,95,0.00,,,0.00,Wunderground v.1.15,2013-10-12 07:58:00,
2013-10-12 01:28:00,41.8,40.5,29.99,WNW,299,2.0,2.0,95,0.00,,,0.00,Wunderground v.1.15,2013-10-12 08:28:00,
2013-10-12 01:58:00,41.6,40.5,30.00,WNW,300,0.0,0.0,96,0.00,,,0.00,Wunderground v.1.15,2013-10-12 08:58:00,
2013-10-12 02:28:00,41.4,40.1,30.00,WNW,300,0.0,1.0,95,0.00,,,0.00,Wunderground v.1.15,2013-10-12 09:28:00,
2013-10-12 02:58:00,41.0,39.9,29.99,WNW,300,1.0,1.0,96,0.00,,,0.00,Wunderground v.1.15,2013-10-12 09:58:00,
2013-10-12 03:28:00,41.0,39.9,29.98,WNW,300,1.0,1.0,96,0.00,,,0.00,Wunderground v.1.15,2013-10-12 10:28:00,
2013-10-12 03:58:00,40.8,39.7,29.98,WNW,300,0.0,1.0,96,0.00,,,0.00,Wunderground v.1.15,2013-10-12 10:58:00,
2013-10-12 04:28:00,40.6,39.5,29.98,WNW,300,1.0,2.0,96,0.00,,,0.00,Wunderground v.1.15,2013-10-12 11:28:00,
2013-10-12 04:58:00,40.0,39.0,29.98,WNW,299,2.0,2.0,96,0.00,,,0.00,Wunderground v.1.15,2013-10-12 11:58:00,
2013-10-12 05:28:00,39.7,38.9,29.98,WNW,299,2.0,2.0,97,0.00,,,0.00,Wunderground v.1.15,2013-10-12 12:28:00,
2013-10-12 05:58:00,39.8,39.0,29.98,WNW,298,0.0,1.0,97,0.00,,,0.00,Wunderground v.1.15,2013-10-12 12:58:00,
2013-10-12 06:28:00,40.0,39.2,29.98,WNW,298,1.0,1.0,97,0.00,,,0.00,Wunderground v.1.15,2013-10-12 13:28:00,
2013-10-12 06:58:00,39.5,38.7,29.99,WNW,298,2.0,2.0,97,0.00,,,0.00,Wunderground v.1.15,2013-10-12 13:58:00,
2013-10-12 07:28:00,39.5,38.7,29.99,WNW,298,1.0,1.0,97,0.00,,,0.00,Wunderground v.1.15,2013-10-12 14:28:00,
2013-10-12 07:58:00,40.5,40.0,29.99,WNW,297,1.0,2.0,98,0.00,,,0.00,Wunderground v.1.15,2013-10-12 14:58:00,
2013-10-12 08:28:00,42.2,41.4,30.00,WNW,297,1.0,1.0,97,0.00,,,0.00,Wunderground v.1.15,2013-10-12 15:28:00,
2013-10-12 08:58:00,44.8,43.5,30.01,WNW,297,1.0,1.0,95,0.00,,,0.00,Wunderground v.1.15,2013-10-12 15:58:00,
2013-10-12 09:28:00,48.3,44.9,30.00,West,263,1.0,1.0,88,0.00,,,0.00,Wunderground v.1.15,2013-10-12 16:28:00,
2013-10-12 09:58:00,51.0,45.7,30.00,SSE,157,2.0,2.0,82,0.00,,,0.00,Wunderground v.1.15,2013-10-12 16:58:00,
2013-10-12 10:28:00,51.6,46.3,30.00,SSE,154,2.0,3.0,82,0.00,,,0.00,Wunderground v.1.15,2013-10-12 17:28:00,
2013-10-12 10:58:00,53.3,47.0,29.99,SE,138,2.0,2.0,79,0.00,,,0.00,Wunderground v.1.15,2013-10-12 17:58:00,
2013-10-12 11:28:00,56.2,48.4,29.98,SE,146,1.0,1.0,75,0.00,,,0.00,Wunderground v.1.15,2013-10-12 18:28:00,
2013-10-12 11:58:00,58.1,48.7,29.98,SE,127,2.0,4.0,71,0.00,,,0.00,Wunderground v.1.15,2013-10-12 18:58:00,
2013-10-12 12:28:00,60.4,49.0,29.96,SE,141,2.0,2.0,66,0.00,,,0.00,Wunderground v.1.15,2013-10-12 19:28:00,
2013-10-12 12:58:00,63.6,49.9,29.94,SE,146,2.0,5.0,61,0.00,,,0.00,Wunderground v.1.15,2013-10-12 19:58:00,
2013-10-12 13:28:00,64.9,50.7,29.92,SSE,155,2.0,2.0,60,0.00,,,0.00,Wunderground v.1.15,2013-10-12 20:28:00,
2013-10-12 13:58:00,67.0,47.7,29.92,West,281,7.0,7.0,50,0.00,,,0.00,Wunderground v.1.15,2013-10-12 20:58:00,
2013-10-12 14:28:00,65.8,47.7,29.91,West,275,10.0,11.0,52,0.00,,,0.00,Wunderground v.1.15,2013-10-12 21:28:00,
2013-10-12 14:58:00,65.4,44.6,29.91,WNW,302,9.0,9.0,47,0.00,,,0.00,Wunderground v.1.15,2013-10-12 21:58:00,
2013-10-12 15:28:00,61.9,44.1,29.91,WNW,299,10.0,10.0,52,0.00,,,0.00,Wunderground v.1.15,2013-10-12 22:28:00,
2013-10-12 15:58:00,59.4,42.7,29.91,NW,309,13.0,15.0,54,0.00,,,0.00,Wunderground v.1.15,2013-10-12 22:58:00,
2013-10-12 16:28:00,58.3,44.0,29.90,NW,308,10.0,14.0,59,0.00,,,0.00,Wunderground v.1.15,2013-10-12 23:28:00,
2013-10-12 16:58:00,57.1,45.0,29.90,West,280,11.0,11.0,64,0.00,,,0.00,Wunderground v.1.15,2013-10-12 23:58:00,
2013-10-12 17:28:00,57.2,44.7,29.89,WNW,288,11.0,11.0,63,0.00,,,0.00,Wunderground v.1.15,2013-10-13 00:28:00,
2013-10-12 17:58:00,56.5,44.9,29.89,WNW,302,7.0,14.0,65,0.00,,,0.00,Wunderground v.1.15,2013-10-13 00:58:00,
2013-10-12 18:29:00,54.8,44.8,29.89,NW,308,6.0,6.0,69,0.00,,,0.00,Wunderground v.1.15,2013-10-13 01:29:00,
2013-10-12 18:59:00,54.1,44.9,29.89,NW,311,6.0,9.0,71,0.00,,,0.00,Wunderground v.1.15,2013-10-13 01:59:00,
2013-10-12 19:29:00,54.0,44.8,29.89,NW,310,8.0,8.0,71,0.00,,,0.00,Wunderground v.1.15,2013-10-13 02:29:00,
2013-10-12 19:59:00,53.8,44.6,29.90,WNW,296,6.0,10.0,71,0.00,,,0.00,Wunderground v.1.15,2013-10-13 02:59:00,
2013-10-12 20:29:00,53.3,44.9,29.90,NW,306,9.0,9.0,73,0.00,,,0.00,Wunderground v.1.15,2013-10-13 03:29:00,
2013-10-12 20:59:00,52.6,44.9,29.90,WNW,286,10.0,13.0,75,0.00,,,0.00,Wunderground v.1.15,2013-10-13 03:59:00,
2013-10-12 21:29:00,52.5,44.8,29.91,WNW,302,7.0,7.0,75,0.00,,,0.00,Wunderground v.1.15,2013-10-13 04:29:00,
2013-10-12 21:59:00,52.1,44.8,29.91,WNW,298,9.0,10.0,76,0.00,,,0.00,Wunderground v.1.15,2013-10-13 04:59:00,
2013-10-12 22:29:00,53.0,44.9,29.91,NW,315,11.0,11.0,74,0.00,,,0.00,Wunderground v.1.15,2013-10-13 05:29:00,
2013-10-12 22:59:00,53.2,45.1,29.90,WNW,289,11.0,11.0,74,0.00,,,0.00,Wunderground v.1.15,2013-10-13 05:59:00,
2013-10-12 23:29:00,53.5,45.4,29.91,NW,305,8.0,8.0,74,0.00,,,0.00,Wunderground v.1.15,2013-10-13 06:29:00,
2013-10-12 23:59:00,53.2,46.2,29.91,NW,313,7.0,7.0,77,0.00,,,0.00,Wunderground v.1.15,2013-10-13 06:59:00,